Time;durP1;ratioP1;P1;durP2;ratioP2;P2;SDS_P1;SDS_P2;PMS_P1;PMS_P2;Temp;Humidity;BMP_temperature;BMP_pressure;BME280_temperature;BME280_humidity;BME280_pressure;Samples;Min_cycle;Max_cycle;Signal;HPM_P1;HPM_P2
2023/05/20 00:01:25;;;;;;;8.18;3.00;;;;;;;12.39;67.03;102285.22;5031741;28;20025;-76
2023/05/20 00:03:51;;;;;;;8.15;3.63;;;;;;;12.38;67.02;102290.59;5013805;28;20045;-76
2023/05/20 00:06:16;;;;;;;11.40;3.63;;;;;;;12.31;68.01;102281.34;5031042;28;20018;-76
2023/05/20 00:08:41;;;;;;;8.63;3.38;;;;;;;12.24;68.15;102279.06;5030889;28;20056;-76
2023/05/20 00:11:07;;;;;;;6.70;3.70;;;;;;;12.24;68.40;102275.56;5031458;28;20032;-76
2023/05/20 00:13:34;;;;;;;7.63;3.80;;;;;;;12.18;68.84;102281.22;5030216;28;20030;-77
2023/05/20 00:16:03;;;;;;;7.78;3.90;;;;;;;12.17;69.27;102290.06;5011488;28;20017;-76
2023/05/20 00:18:28;;;;;;;11.27;3.22;;;;;;;12.13;69.64;102284.13;5015157;28;20400;-76
2023/05/20 00:20:54;;;;;;;10.65;3.92;;;;;;;12.10;69.98;102294.00;5010671;28;20026;-76
2023/05/20 00:23:19;;;;;;;10.02;3.60;;;;;;;12.09;70.89;102294.94;4999978;28;20029;-77
2023/05/20 00:25:44;;;;;;;8.65;3.83;;;;;;;12.06;71.16;102295.13;5013483;28;20092;-76
2023/05/20 00:28:10;;;;;;;8.93;4.00;;;;;;;12.00;71.33;102287.53;5029187;28;20087;-77
2023/05/20 00:30:38;;;;;;;8.07;3.97;;;;;;;11.92;71.85;102291.44;5013795;28;20624;-76
2023/05/20 00:33:04;;;;;;;11.40;4.13;;;;;;;11.88;72.14;102289.06;5030237;28;20040;-76
2023/05/20 00:35:32;;;;;;;10.32;4.03;;;;;;;11.82;72.92;102282.38;5027378;28;20052;-76
2023/05/20 00:37:58;;;;;;;9.82;3.72;;;;;;;11.77;72.93;102273.84;5031173;28;20430;-76
2023/05/20 00:40:24;;;;;;;9.13;4.20;;;;;;;11.73;73.48;102277.59;5029938;28;20052;-76
2023/05/20 00:42:49;;;;;;;9.93;4.30;;;;;;;11.65;73.98;102277.16;5012154;28;20036;-76
2023/05/20 00:45:15;;;;;;;8.30;4.22;;;;;;;11.66;73.92;102288.56;5029765;28;20048;-77
2023/05/20 00:47:41;;;;;;;10.35;4.18;;;;;;;11.63;74.25;102284.31;5028880;28;20108;-76
2023/05/20 00:50:09;;;;;;;11.38;4.00;;;;;;;11.62;74.53;102282.63;5028323;28;20025;-76
2023/05/20 00:52:35;;;;;;;11.95;4.32;;;;;;;11.63;74.59;102278.19;5026509;28;20033;-76
2023/05/20 00:55:01;;;;;;;11.40;4.03;;;;;;;11.53;74.71;102278.66;5011569;28;20021;-76
2023/05/20 00:57:26;;;;;;;9.10;4.35;;;;;;;11.53;75.09;102283.94;5011929;28;20034;-76
2023/05/20 00:59:54;;;;;;;7.93;3.85;;;;;;;11.48;75.51;102280.72;5029184;28;20025;-76
2023/05/20 01:02:20;;;;;;;9.40;4.10;;;;;;;11.46;75.86;102276.47;5028275;28;20022;-77
2023/05/20 01:04:46;;;;;;;11.32;4.57;;;;;;;11.41;75.70;102279.34;5028891;28;20060;-76
2023/05/20 01:07:14;;;;;;;8.98;3.83;;;;;;;11.39;75.98;102277.72;5024697;28;20040;-76
2023/05/20 01:09:41;;;;;;;8.82;4.30;;;;;;;11.37;76.22;102279.59;5028060;28;20112;-76
2023/05/20 01:12:19;;;;;;;10.23;4.43;;;;;;;11.36;76.42;102272.63;5030155;28;20096;-76
2023/05/20 01:15:09;;;;;;;9.90;3.95;;;;;;;11.37;75.79;102282.25;5029463;28;20390;-76
2023/05/20 01:17:38;;;;;;;14.25;4.80;;;;;;;11.32;76.91;102265.84;5020547;28;20115;-76
2023/05/20 01:20:08;;;;;;;9.07;4.30;;;;;;;11.28;77.24;102271.28;5030537;28;20022;-76
2023/05/20 01:22:37;;;;;;;12.02;4.78;;;;;;;11.24;77.57;102274.16;5030774;28;20478;-76
2023/05/20 01:25:04;;;;;;;9.57;4.32;;;;;;;11.18;77.68;102272.69;5028391;28;20052;-76
2023/05/20 01:27:30;;;;;;;9.90;4.65;;;;;;;11.16;78.22;102269.28;5030284;28;20025;-76
2023/05/20 01:29:55;;;;;;;8.07;4.45;;;;;;;11.11;78.31;102266.03;5029156;28;20148;-76
2023/05/20 01:32:33;;;;;;;10.82;4.38;;;;;;;11.09;78.25;102267.91;5028361;28;20504;-76
2023/05/20 01:35:00;;;;;;;12.98;4.80;;;;;;;11.04;78.93;102269.94;5029046;28;20060;-76
2023/05/20 01:37:26;;;;;;;10.38;4.72;;;;;;;11.02;78.83;102266.53;5026167;28;20043;-76
2023/05/20 01:39:53;;;;;;;9.85;4.68;;;;;;;10.96;78.84;102262.44;5029362;28;20047;-76
2023/05/20 01:42:19;;;;;;;10.70;4.95;;;;;;;10.96;79.08;102266.88;5028061;28;20029;-76
2023/05/20 01:44:45;;;;;;;14.32;4.60;;;;;;;10.95;79.55;102260.75;5012157;28;20017;-76
2023/05/20 01:47:10;;;;;;;9.43;4.72;;;;;;;10.89;79.88;102254.97;5029834;28;20028;-76
2023/05/20 01:49:36;;;;;;;10.15;5.00;;;;;;;10.83;80.42;102255.28;5028348;28;20031;-77
2023/05/20 01:52:02;;;;;;;10.95;4.85;;;;;;;10.87;80.52;102259.47;5027439;28;20026;-76
2023/05/20 01:54:32;;;;;;;10.77;5.00;;;;;;;10.83;80.35;102250.00;5030001;28;20026;-76
2023/05/20 01:56:57;;;;;;;20.70;5.90;;;;;;;10.77;81.17;102261.69;5022513;28;20646;-76
2023/05/20 01:59:22;;;;;;;10.32;5.07;;;;;;;10.80;80.77;102251.00;5026379;28;20108;-76
2023/05/20 02:01:51;;;;;;;10.75;5.00;;;;;;;10.79;81.39;102251.09;5029557;28;20108;-76
2023/05/20 02:04:18;;;;;;;11.13;5.25;;;;;;;10.74;81.38;102250.47;5028243;28;20053;-76
2023/05/20 02:06:44;;;;;;;11.00;5.00;;;;;;;10.71;81.96;102256.75;5026355;28;20091;-76
2023/05/20 02:09:10;;;;;;;9.93;5.15;;;;;;;10.67;81.78;102250.78;5027856;28;20484;-76
2023/05/20 02:11:35;;;;;;;8.52;5.03;;;;;;;10.66;82.33;102249.09;5029484;28;20029;-76
2023/05/20 02:14:01;;;;;;;10.40;5.45;;;;;;;10.62;82.49;102247.56;5026135;28;20063;-76
2023/05/20 02:16:26;;;;;;;8.93;5.00;;;;;;;10.62;82.66;102251.97;5026602;28;20037;-76
2023/05/20 02:18:51;;;;;;;10.45;5.25;;;;;;;10.59;82.52;102245.09;5026739;28;20375;-76
2023/05/20 02:21:18;;;;;;;10.50;5.18;;;;;;;10.47;83.08;102253.63;5010600;28;20075;-76
2023/05/20 02:23:44;;;;;;;9.48;4.93;;;;;;;10.50;83.41;102250.81;5029389;28;20033;-76
2023/05/20 02:26:10;;;;;;;12.18;5.50;;;;;;;10.41;83.38;102248.66;5029262;28;20020;-76
2023/05/20 02:28:39;;;;;;;8.88;5.43;;;;;;;10.42;83.87;102239.84;5028773;28;20033;-76
2023/05/20 02:31:05;;;;;;;13.23;5.28;;;;;;;10.38;84.05;102232.16;5022208;28;20021;-76
2023/05/20 02:33:30;;;;;;;12.00;5.60;;;;;;;10.41;84.23;102230.25;5028091;28;20030;-76
2023/05/20 02:35:56;;;;;;;11.32;5.28;;;;;;;10.40;84.14;102236.41;5029777;28;20028;-76
2023/05/20 02:38:21;;;;;;;8.00;5.18;;;;;;;10.40;84.62;102241.69;5027120;28;20033;-76
2023/05/20 02:40:47;;;;;;;12.52;6.15;;;;;;;10.41;84.25;102237.28;5011854;28;20470;-76
2023/05/20 02:43:12;;;;;;;11.73;5.68;;;;;;;10.38;84.87;102237.41;5030169;28;20039;-77
2023/05/20 02:45:37;;;;;;;10.52;5.32;;;;;;;10.38;85.03;102240.06;5031944;28;20036;-76
2023/05/20 02:48:03;;;;;;;11.70;5.50;;;;;;;10.35;85.08;102246.31;5020291;28;20036;-76
2023/05/20 02:50:28;;;;;;;12.13;5.45;;;;;;;10.34;85.26;102237.59;5029548;28;20021;-76
2023/05/20 02:52:53;;;;;;;18.83;6.15;;;;;;;10.34;85.20;102229.69;5031667;28;20022;-76
2023/05/20 02:55:20;;;;;;;11.52;5.95;;;;;;;10.34;85.25;102234.94;5013898;28;20768;-76
2023/05/20 02:57:46;;;;;;;11.02;5.22;;;;;;;10.35;85.50;102238.44;5031291;28;20068;-76
2023/05/20 03:00:12;;;;;;;12.63;5.53;;;;;;;10.30;85.99;102235.19;5030744;28;20029;-76
2023/05/20 03:02:38;;;;;;;10.30;5.60;;;;;;;10.33;85.87;102238.50;5032010;28;20029;-76
2023/05/20 03:05:04;;;;;;;11.50;6.28;;;;;;;10.29;86.12;102238.75;5030580;28;20113;-76
2023/05/20 03:07:35;;;;;;;10.43;6.05;;;;;;;10.29;86.50;102238.75;5032848;28;20592;-76
2023/05/20 03:10:12;;;;;;;10.40;5.78;;;;;;;10.27;86.48;102235.34;5030722;28;20498;-76
2023/05/20 03:12:38;;;;;;;11.80;6.15;;;;;;;10.20;86.97;102229.53;5015464;28;20037;-76
2023/05/20 03:15:03;;;;;;;9.10;5.75;;;;;;;10.17;87.48;102228.81;5031926;28;20374;-76
2023/05/20 03:17:31;;;;;;;11.48;6.07;;;;;;;10.19;87.45;102233.06;5031019;28;20036;-76
2023/05/20 03:20:06;;;;;;;14.57;6.03;;;;;;;10.19;87.46;102232.22;5032760;28;20068;-76
2023/05/20 03:22:31;;;;;;;12.00;5.93;;;;;;;10.14;87.47;102234.22;5026870;28;20070;-76
2023/05/20 03:24:59;;;;;;;11.73;6.10;;;;;;;10.17;88.00;102228.81;5012852;28;20049;-76
2023/05/20 03:27:25;;;;;;;10.85;5.95;;;;;;;10.16;88.05;102229.75;5014902;28;20029;-76
2023/05/20 03:29:53;;;;;;;8.32;5.80;;;;;;;10.10;88.45;102230.06;5031006;28;20540;-76
2023/05/20 03:32:19;;;;;;;11.00;5.82;;;;;;;10.10;88.56;102232.69;5032724;28;20138;-76
2023/05/20 03:34:45;;;;;;;10.32;6.05;;;;;;;10.07;88.77;102232.84;5031906;28;20033;-76
2023/05/20 03:37:10;;;;;;;9.45;5.88;;;;;;;10.00;88.88;102235.75;5026731;28;20493;-76
2023/05/20 03:39:35;;;;;;;10.93;5.85;;;;;;;10.05;89.01;102233.75;5032774;28;20713;-76
2023/05/20 03:42:01;;;;;;;10.73;5.88;;;;;;;9.93;89.10;102234.34;5013679;28;20486;-76
2023/05/20 03:44:26;;;;;;;9.20;5.80;;;;;;;9.91;89.92;102232.72;5031552;28;20053;-76
2023/05/20 03:46:51;;;;;;;10.32;6.30;;;;;;;9.83;89.89;102225.22;5031346;28;20030;-76
2023/05/20 03:49:17;;;;;;;10.43;5.80;;;;;;;9.85;90.29;102227.78;5030595;28;20030;-76
2023/05/20 03:51:42;;;;;;;13.18;6.28;;;;;;;9.82;90.62;102220.88;5030223;28;20478;-76
2023/05/20 03:54:10;;;;;;;14.25;6.50;;;;;;;9.81;90.83;102219.19;5030393;28;20907;-76
2023/05/20 03:56:36;;;;;;;12.77;6.63;;;;;;;9.84;90.62;102226.06;5014894;28;20060;-76
2023/05/20 03:59:01;;;;;;;9.75;6.35;;;;;;;9.82;90.96;102228.78;5028084;28;20108;-76
2023/05/20 04:01:26;;;;;;;12.20;6.65;;;;;;;9.84;91.09;102221.66;5030562;28;20478;-76
2023/05/20 04:03:52;;;;;;;10.70;6.65;;;;;;;9.85;91.15;102223.34;5013574;28;20045;-76
2023/05/20 04:06:17;;;;;;;8.50;6.13;;;;;;;9.88;90.94;102220.56;5029760;28;20029;-76
2023/05/20 04:08:42;;;;;;;13.65;6.18;;;;;;;9.89;90.95;102224.91;5031137;28;20032;-76
2023/05/20 04:11:08;;;;;;;11.90;6.70;;;;;;;9.89;91.14;102224.06;5029843;28;20060;-76
2023/05/20 04:13:33;;;;;;;13.18;6.72;;;;;;;9.90;91.42;102226.63;5023843;28;20037;-76
2023/05/20 04:16:04;;;;;;;14.07;7.25;;;;;;;9.89;91.77;102229.31;5013582;28;20116;-76
2023/05/20 04:18:32;;;;;;;11.70;6.50;;;;;;;9.96;91.55;102238.59;5029716;28;20037;-76
2023/05/20 04:21:00;;;;;;;11.23;6.10;;;;;;;10.07;91.18;102232.84;5029705;28;20037;-76
2023/05/20 04:23:25;;;;;;;9.85;6.10;;;;;;;10.39;90.38;102237.34;5030993;28;20030;-76
2023/05/20 04:25:51;;;;;;;11.65;6.13;;;;;;;10.95;88.42;102233.56;5031130;28;20040;-76
2023/05/20 04:28:16;;;;;;;10.93;6.03;;;;;;;11.55;84.54;102228.50;5027288;28;20025;-76
2023/05/20 04:30:43;;;;;;;11.65;5.63;;;;;;;11.72;82.79;102224.94;5022578;28;20129;-77
2023/05/20 04:33:10;;;;;;;12.20;5.68;;;;;;;11.55;82.55;102236.41;5012384;28;20033;-76
2023/05/20 04:35:36;;;;;;;12.65;6.07;;;;;;;11.38;83.68;102236.50;5011806;28;20071;-76
2023/05/20 04:38:02;;;;;;;11.55;5.90;;;;;;;11.17;84.37;102236.72;5031035;28;20025;-76
2023/05/20 04:40:27;;;;;;;10.25;5.85;;;;;;;11.06;85.35;102232.97;5031465;28;20030;-76
2023/05/20 04:42:52;;;;;;;13.07;6.32;;;;;;;10.95;85.97;102233.56;5029830;28;20029;-76
2023/05/20 04:45:19;;;;;;;9.07;5.65;;;;;;;10.93;86.31;102232.78;5010915;28;20025;-76
2023/05/20 04:47:44;;;;;;;12.48;6.47;;;;;;;10.87;87.20;102233.97;5010738;28;20026;-77
2023/05/20 04:50:11;;;;;;;10.35;6.22;;;;;;;10.83;87.50;102232.44;5025314;28;20026;-76
2023/05/20 04:52:46;;;;;;;12.30;6.03;;;;;;;10.83;87.71;102239.50;5030066;28;20104;-76
2023/05/20 04:55:12;;;;;;;10.27;6.22;;;;;;;10.81;87.84;102241.34;5029086;28;20041;-76
2023/05/20 04:57:43;;;;;;;10.30;6.43;;;;;;;10.83;88.44;102239.50;5028549;28;20029;-77
2023/05/20 05:00:18;;;;;;;12.68;6.28;;;;;;;10.84;88.31;102236.78;5028425;28;20021;-76
2023/05/20 05:02:44;;;;;;;11.85;6.82;;;;;;;10.88;88.28;102237.47;5014308;28;20030;-76
2023/05/20 05:05:10;;;;;;;9.80;6.00;;;;;;;10.88;87.87;102232.19;5028235;28;20029;-76
2023/05/20 05:07:35;;;;;;;10.52;6.15;;;;;;;10.92;88.83;102234.56;5028945;28;20021;-76
2023/05/20 05:10:01;;;;;;;13.10;6.25;;;;;;;10.96;88.47;102225.56;5022686;28;20048;-76
2023/05/20 05:12:47;;;;;;;12.00;5.75;;;;;;;11.00;87.81;102226.25;5025471;28;20091;-76
2023/05/20 05:15:18;;;;;;;12.10;6.13;;;;;;;11.04;88.10;102221.69;5010536;28;20076;-76
2023/05/20 05:17:44;;;;;;;11.10;5.90;;;;;;;11.09;88.43;102215.22;5026581;28;20056;-76
2023/05/20 05:20:10;;;;;;;9.90;6.05;;;;;;;11.10;87.94;102221.34;5028315;28;20032;-76
2023/05/20 05:22:38;;;;;;;8.35;5.70;;;;;;;11.18;87.48;102220.00;5011992;28;20029;-76
2023/05/20 05:25:05;;;;;;;11.35;6.25;;;;;;;11.21;88.22;102219.84;5026097;28;20033;-76
2023/05/20 05:27:31;;;;;;;8.93;5.88;;;;;;;11.27;88.25;102208.97;5028393;28;20432;-76
2023/05/20 05:29:57;;;;;;;10.88;6.40;;;;;;;11.30;87.88;102216.69;5024817;28;20025;-76
2023/05/20 05:32:23;;;;;;;10.27;6.00;;;;;;;11.40;87.75;102224.09;5029175;28;20520;-77
2023/05/20 05:34:51;;;;;;;9.13;5.53;;;;;;;11.44;86.86;102221.19;5030147;28;20025;-77
2023/05/20 05:37:16;;;;;;;11.68;6.05;;;;;;;11.52;86.69;102218.13;5027127;28;20026;-77
2023/05/20 05:39:42;;;;;;;10.77;5.88;;;;;;;11.62;86.02;102221.97;5028000;28;20421;-77
2023/05/20 05:42:07;;;;;;;11.43;6.18;;;;;;;11.71;86.32;102207.41;5028833;28;20032;-77
2023/05/20 05:44:32;;;;;;;10.15;5.90;;;;;;;11.78;86.01;102204.38;5028221;28;20032;-77
2023/05/20 05:46:58;;;;;;;11.73;5.80;;;;;;;11.86;85.26;102202.13;5030005;28;20043;-77
2023/05/20 05:49:23;;;;;;;9.98;5.65;;;;;;;11.93;84.68;102203.47;5029645;28;20032;-77
2023/05/20 05:51:51;;;;;;;11.82;5.93;;;;;;;11.98;84.69;102205.00;5029163;28;20070;-77
2023/05/20 05:54:19;;;;;;;9.48;5.78;;;;;;;12.05;84.93;102215.13;5027802;28;20540;-77
2023/05/20 05:56:44;;;;;;;14.30;5.70;;;;;;;12.14;83.70;102209.31;5025769;28;20038;-77
2023/05/20 05:59:09;;;;;;;12.80;5.65;;;;;;;12.20;83.19;102219.50;5027487;28;20040;-77
2023/05/20 06:01:36;;;;;;;9.55;5.50;;;;;;;12.32;83.26;102209.16;5029134;28;20025;-75
2023/05/20 06:04:01;;;;;;;7.45;5.13;;;;;;;12.34;81.85;102212.53;5027305;28;20584;-76
2023/05/20 06:06:26;;;;;;;9.18;5.30;;;;;;;12.41;82.04;102208.63;5028249;28;20021;-76
2023/05/20 06:08:52;;;;;;;8.48;5.40;;;;;;;12.48;81.13;102215.22;5012503;28;20489;-77
2023/05/20 06:11:17;;;;;;;11.15;5.80;;;;;;;12.57;81.37;102208.53;5027104;28;20504;-77
2023/05/20 06:13:43;;;;;;;8.65;5.10;;;;;;;12.63;80.43;102218.72;5029046;28;20037;-76
2023/05/20 06:16:08;;;;;;;8.80;5.30;;;;;;;12.70;80.65;102215.63;5024570;28;20398;-77
2023/05/20 06:18:33;;;;;;;9.82;5.40;;;;;;;12.76;80.38;102206.47;5026136;28;20037;-77
2023/05/20 06:21:02;;;;;;;9.90;5.72;;;;;;;12.84;80.38;102196.28;5015146;28;20061;-78
2023/05/20 06:23:27;;;;;;;8.38;5.38;;;;;;;12.92;80.66;102204.59;5011610;28;20039;-77
2023/05/20 06:25:57;;;;;;;10.15;5.18;;;;;;;13.01;79.65;102190.81;5011686;28;20026;-78
2023/05/20 06:28:23;;;;;;;8.43;5.38;;;;;;;13.09;79.44;102193.81;5012094;28;20024;-78
2023/05/20 06:30:48;;;;;;;11.23;5.40;;;;;;;13.20;79.08;102197.59;5024816;28;20030;-78
2023/05/20 06:33:14;;;;;;;7.20;4.93;;;;;;;13.27;78.59;102188.34;5029949;28;20025;-77
2023/05/20 06:35:39;;;;;;;8.23;5.03;;;;;;;13.34;78.85;102179.91;5029984;28;20039;-78
2023/05/20 06:38:05;;;;;;;9.40;5.03;;;;;;;13.43;78.98;102186.41;5029488;28;20018;-77
2023/05/20 06:40:30;;;;;;;11.98;5.68;;;;;;;13.51;77.20;102181.47;5029265;28;20022;-78
2023/05/20 06:42:55;;;;;;;10.55;5.05;;;;;;;13.55;75.72;102175.03;5029422;28;20120;-77
2023/05/20 06:45:21;;;;;;;8.05;5.03;;;;;;;13.63;75.33;102179.84;5026714;28;20032;-77
2023/05/20 06:47:49;;;;;;;7.65;4.95;;;;;;;13.68;74.80;102177.75;5004607;28;20026;-77
2023/05/20 06:50:14;;;;;;;7.22;4.68;;;;;;;13.77;75.64;102172.69;5023211;28;20053;-77
2023/05/20 06:52:40;;;;;;;8.05;5.10;;;;;;;13.84;74.26;102178.41;5028218;28;20051;-77
2023/05/20 06:55:06;;;;;;;7.45;4.38;;;;;;;13.96;74.31;102176.75;5010162;28;20048;-77
2023/05/20 06:57:31;;;;;;;9.10;4.68;;;;;;;14.07;73.12;102168.94;5026404;28;20569;-77
2023/05/20 06:59:56;;;;;;;7.60;4.35;;;;;;;14.20;71.69;102168.94;5028268;28;20027;-77
2023/05/20 07:02:24;;;;;;;7.68;4.53;;;;;;;14.42;72.60;102169.19;5026471;28;20031;-77
2023/05/20 07:04:49;;;;;;;7.40;4.20;;;;;;;14.66;70.58;102171.97;5027215;28;20525;-77
2023/05/20 07:07:15;;;;;;;7.93;4.38;;;;;;;14.82;69.12;102161.16;5005569;28;20021;-77
2023/05/20 07:09:42;;;;;;;11.38;5.13;;;;;;;15.07;69.07;102165.53;5026889;28;20085;-77
2023/05/20 07:12:07;;;;;;;6.93;3.67;;;;;;;15.23;66.68;102164.31;5026267;28;20432;-77
2023/05/20 07:14:32;;;;;;;7.50;4.57;;;;;;;15.42;66.45;102158.50;5026253;28;20074;-77
2023/05/20 07:16:58;;;;;;;8.57;4.13;;;;;;;15.60;65.82;102154.53;5022157;28;20032;-77
2023/05/20 07:19:23;;;;;;;6.63;4.35;;;;;;;15.82;64.79;102152.94;5027400;28;20055;-76
2023/05/20 07:21:48;;;;;;;7.68;4.18;;;;;;;15.95;62.57;102149.22;5019399;28;20030;-77
2023/05/20 07:24:17;;;;;;;9.70;4.20;;;;;;;16.23;63.34;102153.28;5011179;28;20075;-76
2023/05/20 07:26:43;;;;;;;7.47;3.47;;;;;;;16.42;60.84;102146.56;5028940;28;20056;-76
2023/05/20 07:29:09;;;;;;;5.85;3.50;;;;;;;16.62;60.70;102143.19;5023836;28;20061;-76
2023/05/20 07:31:34;;;;;;;11.68;3.90;;;;;;;16.69;59.29;102144.41;5017229;28;20025;-76
2023/05/20 07:34:02;;;;;;;5.07;3.60;;;;;;;16.83;59.60;102141.53;5032306;28;20032;-76
2023/05/20 07:36:28;;;;;;;9.63;3.53;;;;;;;17.00;57.71;102142.81;5031132;28;20026;-76
2023/05/20 07:38:54;;;;;;;4.57;3.33;;;;;;;17.19;57.31;102142.16;5032360;28;20033;-76
2023/05/20 07:41:20;;;;;;;5.70;3.60;;;;;;;17.39;56.82;102132.56;5032517;28;20076;-76
2023/05/20 07:43:45;;;;;;;5.82;3.97;;;;;;;17.43;55.64;102134.84;5032082;28;20021;-77
2023/05/20 07:46:11;;;;;;;5.85;3.30;;;;;;;17.46;54.70;102125.78;5032233;28;20615;-75
2023/05/20 07:48:36;;;;;;;6.13;3.40;;;;;;;17.56;55.37;102134.66;5031984;28;20468;-76
2023/05/20 07:51:01;;;;;;;7.68;3.53;;;;;;;17.77;55.25;102132.09;5030250;28;20032;-75
2023/05/20 07:53:35;;;;;;;7.65;3.47;;;;;;;17.75;53.79;102134.03;5027638;28;20022;-78
2023/05/20 07:56:00;;;;;;;8.82;3.67;;;;;;;17.77;53.25;102132.94;4997989;28;20025;-76
2023/05/20 07:58:30;;;;;;;8.80;3.42;;;;;;;17.87;52.05;102130.34;5026846;28;20049;-76
2023/05/20 08:00:56;;;;;;;4.85;3.30;;;;;;;18.02;52.29;102123.72;5026381;28;20131;-76
2023/05/20 08:03:22;;;;;;;5.82;3.35;;;;;;;18.21;52.05;102125.66;5030048;28;20589;-76
2023/05/20 08:05:47;;;;;;;7.65;3.65;;;;;;;18.20;51.62;102123.13;5013229;28;20040;-76
2023/05/20 08:08:13;;;;;;;14.07;3.80;;;;;;;18.40;52.51;102135.56;5030475;28;20029;-76
2023/05/20 08:10:38;;;;;;;7.38;3.17;;;;;;;18.58;51.33;102127.78;5015367;28;20074;-76
2023/05/20 08:13:03;;;;;;;5.65;3.13;;;;;;;18.42;49.63;102128.31;5038148;28;20029;-76
2023/05/20 08:15:31;;;;;;;7.28;3.30;;;;;;;18.46;50.28;102113.72;5040620;28;20550;-76
2023/05/20 08:17:57;;;;;;;5.28;3.30;;;;;;;18.39;50.16;102110.72;5039885;28;20025;-76
2023/05/20 08:20:22;;;;;;;7.85;3.53;;;;;;;18.47;50.50;102118.06;5038952;28;20025;-76
2023/05/20 08:22:47;;;;;;;5.82;3.28;;;;;;;18.59;49.50;102121.47;5037938;28;20017;-76
2023/05/20 08:25:15;;;;;;;8.93;3.45;;;;;;;18.83;49.09;102110.53;5035881;28;20041;-77
2023/05/20 08:27:41;;;;;;;4.55;3.05;;;;;;;18.83;48.69;102105.19;5031658;28;20018;-76
2023/05/20 08:30:08;;;;;;;6.80;3.10;;;;;;;18.86;48.06;102111.09;5036899;28;20033;-75
2023/05/20 08:32:34;;;;;;;6.80;3.22;;;;;;;18.66;48.63;102107.50;5011782;28;20475;-76
2023/05/20 08:35:03;;;;;;;5.07;2.92;;;;;;;18.83;49.34;102095.38;5018002;28;20043;-76
2023/05/20 08:37:28;;;;;;;8.82;2.90;;;;;;;18.91;47.86;102102.69;5013049;28;20033;-76
2023/05/20 08:39:55;;;;;;;9.90;3.35;;;;;;;18.89;48.84;102100.16;5029178;28;20044;-76
2023/05/20 08:42:25;;;;;;;9.70;3.38;;;;;;;19.09;49.29;102095.69;5012981;28;20045;-76
2023/05/20 08:44:51;;;;;;;8.15;3.40;;;;;;;19.64;48.85;102088.03;5025273;28;20116;-76
2023/05/20 08:47:18;;;;;;;6.80;3.53;;;;;;;19.81;45.91;102087.28;5030531;28;20018;-75
2023/05/20 08:49:44;;;;;;;7.70;3.30;;;;;;;19.58;45.56;102096.56;5031410;28;20112;-76
2023/05/20 08:52:12;;;;;;;6.55;3.30;;;;;;;19.51;45.54;102090.09;5028376;28;20029;-75
2023/05/20 08:54:45;;;;;;;4.10;3.20;;;;;;;19.60;46.10;102076.75;5028411;28;20035;-76
2023/05/20 08:57:12;;;;;;;5.95;3.35;;;;;;;19.71;45.76;102092.66;5030862;28;20025;-75
2023/05/20 08:59:51;;;;;;;7.47;3.50;;;;;;;19.93;45.70;102088.78;5026597;28;20028;-76
2023/05/20 09:02:16;;;;;;;11.05;3.40;;;;;;;19.78;45.34;102086.72;5024044;28;20025;-75
2023/05/20 09:04:41;;;;;;;8.23;3.60;;;;;;;19.80;45.46;102074.91;5010458;28;20553;-76
2023/05/20 09:07:07;;;;;;;8.05;3.30;;;;;;;20.01;45.71;102082.72;5026056;28;20051;-76
2023/05/20 09:09:34;;;;;;;10.38;3.47;;;;;;;20.00;44.51;102071.19;5029744;28;20025;-75
2023/05/20 09:12:03;;;;;;;10.80;3.83;;;;;;;20.25;44.64;102079.56;5028097;28;20032;-75
2023/05/20 09:14:31;;;;;;;10.30;3.35;;;;;;;20.37;42.92;102070.38;5028485;28;20112;-76
2023/05/20 09:16:57;;;;;;;6.15;3.15;;;;;;;20.58;43.42;102076.38;5023899;28;20075;-76
2023/05/20 09:19:23;;;;;;;5.30;3.10;;;;;;;20.45;43.07;102070.53;5040964;28;20071;-78
2023/05/20 09:21:52;;;;;;;5.32;3.00;;;;;;;20.49;43.11;102071.91;5027441;28;20021;-78
2023/05/20 09:24:25;;;;;;;5.57;2.80;;;;;;;20.46;44.43;102072.22;5027529;28;20021;-78
2023/05/20 09:26:51;;;;;;;4.18;2.55;;;;;;;20.54;44.06;102058.94;5021229;28;20037;-78
2023/05/20 09:29:18;;;;;;;6.30;2.90;;;;;;;20.60;42.96;102061.00;5024770;28;20029;-78
2023/05/20 09:31:43;;;;;;;6.40;3.00;;;;;;;20.60;42.97;102053.00;5027828;28;20749;-78
2023/05/20 09:34:09;;;;;;;7.65;3.17;;;;;;;20.96;44.71;102047.69;5027896;28;20059;-77
2023/05/20 09:36:34;;;;;;;4.97;3.00;;;;;;;20.95;43.00;102052.19;5024851;28;20116;-77
2023/05/20 09:39:04;;;;;;;7.30;3.00;;;;;;;20.94;42.74;102065.75;5023410;28;20383;-78
2023/05/20 09:41:37;;;;;;;3.47;2.58;;;;;;;20.82;42.77;102061.59;5028133;28;20029;-78
2023/05/20 09:44:05;;;;;;;5.25;2.95;;;;;;;20.60;42.80;102068.19;5041355;28;20985;-78
2023/05/20 09:46:33;;;;;;;4.18;3.10;;;;;;;20.41;42.73;102074.47;5024172;28;20104;-77
2023/05/20 09:49:01;;;;;;;3.95;3.00;;;;;;;20.37;43.38;102062.34;5026232;28;20025;-77
2023/05/20 09:51:28;;;;;;;5.15;2.78;;;;;;;20.63;43.79;102052.69;5029886;28;20033;-77
2023/05/20 09:53:53;;;;;;;6.85;3.33;;;;;;;20.68;43.29;102064.75;5027561;28;20117;-79
2023/05/20 09:56:21;;;;;;;7.45;3.22;;;;;;;20.53;43.57;102065.28;5022296;28;20120;-79
2023/05/20 09:58:48;;;;;;;5.45;3.25;;;;;;;20.53;44.42;102059.94;5025107;28;20030;-78
2023/05/20 10:01:14;;;;;;;4.35;2.95;;;;;;;20.34;43.89;102051.94;5026131;28;20112;-79
2023/05/20 10:03:39;;;;;;;10.13;3.25;;;;;;;20.38;44.57;102047.16;5028524;28;20527;-78
2023/05/20 10:06:42;;;;;;;5.50;3.20;;;;;;;20.52;45.37;102044.03;5028503;28;20025;-78
2023/05/20 10:09:48;;;;;;;5.75;3.30;;;;;;;20.43;44.58;102053.78;5042765;28;20029;-78
2023/05/20 10:12:54;;;;;;;;;;;;;;;;;;;;;
2023/05/20 10:15:41;;;;;;;6.93;3.05;;;;;;;19.56;45.51;102039.81;5009927;28;20496;-79
2023/05/20 10:18:52;;;;;;;9.02;3.47;;;;;;;19.59;46.92;102034.16;5025055;28;20398;-78
2023/05/20 10:21:23;;;;;;;8.07;3.28;;;;;;;19.90;46.66;102043.66;5029212;28;20389;-79
2023/05/20 10:23:50;;;;;;;5.13;3.00;;;;;;;20.00;46.67;102046.31;5029227;28;20029;-79
2023/05/20 10:26:16;;;;;;;5.25;2.88;;;;;;;20.17;46.08;102028.69;5025667;28;20021;-78
2023/05/20 10:28:42;;;;;;;6.30;2.95;;;;;;;20.37;44.04;102024.91;5025964;28;20708;-79
2023/05/20 10:31:20;;;;;;;8.30;3.13;;;;;;;20.50;44.46;102025.47;5011675;28;20029;-78
2023/05/20 10:33:46;;;;;;;11.10;3.00;;;;;;;20.30;44.87;102007.78;5023967;28;20049;-78
2023/05/20 10:36:29;;;;;;;8.45;3.00;;;;;;;20.25;45.20;102013.59;5020566;28;20021;-78
2023/05/20 10:38:56;;;;;;;5.65;2.95;;;;;;;20.43;43.14;102013.69;5027473;28;20048;-79
2023/05/20 10:41:25;;;;;;;4.03;3.00;;;;;;;20.21;43.82;102014.88;5028633;28;20033;-78
2023/05/20 10:44:01;;;;;;;4.00;2.60;;;;;;;20.34;44.77;102006.50;5026772;28;20060;-79
2023/05/20 10:46:27;;;;;;;7.50;2.90;;;;;;;20.22;44.10;102010.38;5028386;28;20025;-79
2023/05/20 10:48:53;;;;;;;7.25;2.97;;;;;;;20.20;43.51;102007.00;5042658;28;20021;-78
2023/05/20 10:51:20;;;;;;;4.78;2.70;;;;;;;20.32;44.48;102000.47;5029022;28;20036;-79
2023/05/20 10:53:45;;;;;;;4.15;2.80;;;;;;;20.73;43.71;101999.13;5029239;28;20052;-78
2023/05/20 10:56:19;;;;;;;6.72;3.00;;;;;;;21.20;43.43;102002.41;5027511;28;20063;-79
2023/05/20 10:58:44;;;;;;;6.32;2.78;;;;;;;21.21;43.00;102006.78;5029626;28;20033;-78
2023/05/20 11:01:10;;;;;;;5.07;2.20;;;;;;;21.26;43.25;101993.81;5028939;28;20025;-76
2023/05/20 11:03:36;;;;;;;8.32;3.00;;;;;;;20.92;42.44;102008.84;5025089;28;20046;-79
2023/05/20 11:06:09;;;;;;;3.60;2.78;;;;;;;20.86;43.34;101998.78;5032118;28;20033;-78
2023/05/20 11:08:34;;;;;;;7.03;3.08;;;;;;;20.84;42.84;101980.19;5048611;28;20489;-79
2023/05/20 11:11:00;;;;;;;4.55;2.70;;;;;;;21.08;42.80;101987.59;5034051;28;20052;-79
2023/05/20 11:13:25;;;;;;;6.45;2.47;;;;;;;21.34;42.50;101986.84;5048931;28;20387;-78
2023/05/20 11:15:51;;;;;;;5.10;2.53;;;;;;;21.52;42.28;101977.75;5032465;28;20135;-79
2023/05/20 11:18:16;;;;;;;4.97;2.60;;;;;;;21.42;41.67;101981.53;5048071;28;20441;-78
2023/05/20 11:20:42;;;;;;;3.75;2.60;;;;;;;21.13;42.82;101982.59;5043204;28;20482;-78
2023/05/20 11:23:12;;;;;;;3.90;2.47;;;;;;;21.12;43.20;101978.25;5032162;28;20052;-78
2023/05/20 11:25:37;;;;;;;5.30;2.75;;;;;;;21.22;42.24;101978.19;5047734;28;20018;-79